Airports Netherlands Amsterdam Airport Schiphol

Amsterdam Airport Schiphol (EHAM / AMS)

Facts about Amsterdam Airport Schiphol

Name Amsterdam Airport Schiphol
City Amsterdam
Country Netherlands
ICAO code EHAM
IATA code AMS
Elevation -3.3528 meters (-11 feet)

Weather

METAR

Metar data retrieved Friday, 19 July 2024 at 23:55 UTC (19 minutes ago)

EHAM 192325Z 12008KT CAVOK 22/16 Q1014 NOSIG

Live traffic

Navigraph Charts (account required)